sensor_id;sensor_type;location;lat;lon;timestamp;pressure;altitude;pressure_sealevel;temperature;humidity
56402;BME280;42299;35.160;26.100;2023-04-29T00:00:07;101138.00;;;15.25;82.61
56402;BME280;42299;35.160;26.100;2023-04-29T00:01:32;101128.22;;;15.24;82.26
56402;BME280;42299;35.160;26.100;2023-04-29T00:02:54;101107.88;;;15.23;82.45
56402;BME280;42299;35.160;26.100;2023-04-29T00:04:18;101129.13;;;15.23;82.66
56402;BME280;42299;35.160;26.100;2023-04-29T00:05:41;101119.38;;;15.22;82.14
56402;BME280;42299;35.160;26.100;2023-04-29T00:07:03;101110.53;;;15.23;81.32
56402;BME280;42299;35.160;26.100;2023-04-29T00:08:25;101106.06;;;15.23;80.65
56402;BME280;42299;35.160;26.100;2023-04-29T00:09:47;101121.16;;;15.26;80.54
56402;BME280;42299;35.160;26.100;2023-04-29T00:11:10;101118.50;;;15.26;80.94
56402;BME280;42299;35.160;26.100;2023-04-29T00:12:32;101114.94;;;15.27;81.18
56402;BME280;42299;35.160;26.100;2023-04-29T00:13:54;101112.28;;;15.27;81.74
56402;BME280;42299;35.160;26.100;2023-04-29T00:15:16;101106.09;;;15.26;82.91
56402;BME280;42299;35.160;26.100;2023-04-29T00:16:38;101122.91;;;15.25;84.22
56402;BME280;42299;35.160;26.100;2023-04-29T00:18:00;101120.25;;;15.25;85.33
56402;BME280;42299;35.160;26.100;2023-04-29T00:19:24;101115.81;;;15.26;85.69
56402;BME280;42299;35.160;26.100;2023-04-29T00:20:46;101103.41;;;15.26;86.35
56402;BME280;42299;35.160;26.100;2023-04-29T00:22:07;101112.28;;;15.25;87.22
56402;BME280;42299;35.160;26.100;2023-04-29T00:23:30;101122.91;;;15.24;87.60
56402;BME280;42299;35.160;26.100;2023-04-29T00:24:51;101112.28;;;15.24;87.87
56402;BME280;42299;35.160;26.100;2023-04-29T00:26:14;101121.16;;;15.23;88.05
56402;BME280;42299;35.160;26.100;2023-04-29T00:27:39;101115.84;;;15.23;87.89
56402;BME280;42299;35.160;26.100;2023-04-29T00:29:02;101122.03;;;15.20;87.70
56402;BME280;42299;35.160;26.100;2023-04-29T00:30:24;101109.59;;;15.18;87.56
56402;BME280;42299;35.160;26.100;2023-04-29T00:31:46;101116.72;;;15.15;87.95
56402;BME280;42299;35.160;26.100;2023-04-29T00:33:09;101106.06;;;15.15;88.62
56402;BME280;42299;35.160;26.100;2023-04-29T00:34:32;101116.72;;;15.15;88.66
56402;BME280;42299;35.160;26.100;2023-04-29T00:35:55;101115.78;;;15.16;89.15
56402;BME280;42299;35.160;26.100;2023-04-29T00:37:18;101118.47;;;15.18;89.83
56402;BME280;42299;35.160;26.100;2023-04-29T00:38:40;101117.56;;;15.18;89.73
56402;BME280;42299;35.160;26.100;2023-04-29T00:40:03;101108.72;;;15.15;89.55
56402;BME280;42299;35.160;26.100;2023-04-29T00:41:26;101096.31;;;15.14;88.93
56402;BME280;42299;35.160;26.100;2023-04-29T00:42:48;101092.75;;;15.14;87.61
56402;BME280;42299;35.160;26.100;2023-04-29T00:44:11;101103.41;;;15.15;87.00
56402;BME280;42299;35.160;26.100;2023-04-29T00:45:32;101097.19;;;15.18;87.14
56402;BME280;42299;35.160;26.100;2023-04-29T00:46:54;101096.31;;;15.21;87.79
56402;BME280;42299;35.160;26.100;2023-04-29T00:48:18;101101.63;;;15.24;88.94
56402;BME280;42299;35.160;26.100;2023-04-29T00:49:42;101107.84;;;15.26;89.86
56402;BME280;42299;35.160;26.100;2023-04-29T00:51:04;101105.19;;;15.26;89.94
56402;BME280;42299;35.160;26.100;2023-04-29T00:52:28;101106.94;;;15.24;89.66
56402;BME280;42299;35.160;26.100;2023-04-29T00:53:50;101110.50;;;15.21;89.77
56402;BME280;42299;35.160;26.100;2023-04-29T00:55:13;101105.19;;;15.20;90.17
56402;BME280;42299;35.160;26.100;2023-04-29T00:56:34;101101.63;;;15.18;90.29
56402;BME280;42299;35.160;26.100;2023-04-29T00:57:58;101115.81;;;15.20;90.17
56402;BME280;42299;35.160;26.100;2023-04-29T00:59:19;101106.06;;;15.19;90.13
56402;BME280;42299;35.160;26.100;2023-04-29T01:00:42;101106.97;;;15.16;90.62
56402;BME280;42299;35.160;26.100;2023-04-29T01:02:07;101103.41;;;15.15;90.84
56402;BME280;42299;35.160;26.100;2023-04-29T01:03:30;101110.50;;;15.15;90.41
56402;BME280;42299;35.160;26.100;2023-04-29T01:04:53;101110.47;;;15.12;89.94
56402;BME280;42299;35.160;26.100;2023-04-29T01:06:23;101111.38;;;15.12;89.82
56402;BME280;42299;35.160;26.100;2023-04-29T01:07:56;101113.16;;;15.13;89.50
56402;BME280;42299;35.160;26.100;2023-04-29T01:09:28;101092.75;;;15.12;89.60
56402;BME280;42299;35.160;26.100;2023-04-29T01:11:02;101095.41;;;15.11;90.54
56402;BME280;42299;35.160;26.100;2023-04-29T01:12:32;101098.94;;;15.10;91.34
56402;BME280;42299;35.160;26.100;2023-04-29T01:14:01;101098.97;;;15.08;91.72
56402;BME280;42299;35.160;26.100;2023-04-29T01:15:27;101104.25;;;15.10;91.90
56402;BME280;42299;35.160;26.100;2023-04-29T01:16:58;101102.50;;;15.09;92.11
56402;BME280;42299;35.160;26.100;2023-04-29T01:18:25;101100.72;;;15.08;92.25
56402;BME280;42299;35.160;26.100;2023-04-29T01:19:53;101094.50;;;15.04;93.10
56402;BME280;42299;35.160;26.100;2023-04-29T01:21:16;101094.50;;;15.01;93.88
56402;BME280;42299;35.160;26.100;2023-04-29T01:22:49;101090.97;;;15.01;93.88
56402;BME280;42299;35.160;26.100;2023-04-29T01:24:14;101083.84;;;14.98;93.84
56402;BME280;42299;35.160;26.100;2023-04-29T01:25:37;101086.50;;;14.98;92.89
56402;BME280;42299;35.160;26.100;2023-04-29T01:27:22;101079.41;;;14.97;92.92
56402;BME280;42299;35.160;26.100;2023-04-29T01:28:53;101070.53;;;14.97;94.22
56402;BME280;42299;35.160;26.100;2023-04-29T01:30:24;101080.31;;;14.96;95.56
56402;BME280;42299;35.160;26.100;2023-04-29T01:31:57;101076.75;;;14.94;96.98
56402;BME280;42299;35.160;26.100;2023-04-29T01:33:31;101068.75;;;14.91;97.83
56402;BME280;42299;35.160;26.100;2023-04-29T01:34:59;101078.53;;;14.89;97.65
56402;BME280;42299;35.160;26.100;2023-04-29T01:36:30;101074.09;;;14.90;97.33
56402;BME280;42299;35.160;26.100;2023-04-29T01:38:04;101079.41;;;14.88;97.15
56402;BME280;42299;35.160;26.100;2023-04-29T01:39:42;101071.41;;;14.87;97.44
56402;BME280;42299;35.160;26.100;2023-04-29T01:41:12;101090.00;;;14.85;97.98
56402;BME280;42299;35.160;26.100;2023-04-29T01:42:39;101080.25;;;14.84;98.52
56402;BME280;42299;35.160;26.100;2023-04-29T01:44:07;101077.63;;;14.83;98.79
56402;BME280;42299;35.160;26.100;2023-04-29T01:45:31;101076.72;;;14.82;99.11
56402;BME280;42299;35.160;26.100;2023-04-29T01:46:55;101080.25;;;14.81;99.03
56402;BME280;42299;35.160;26.100;2023-04-29T01:48:25;101075.81;;;14.80;98.76
56402;BME280;42299;35.160;26.100;2023-04-29T01:49:46;101071.38;;;14.77;98.56
56402;BME280;42299;35.160;26.100;2023-04-29T01:51:10;101075.81;;;14.75;98.95
56402;BME280;42299;35.160;26.100;2023-04-29T01:52:33;101077.59;;;14.75;99.65
56402;BME280;42299;35.160;26.100;2023-04-29T01:53:54;101068.72;;;14.76;100.00
56402;BME280;42299;35.160;26.100;2023-04-29T01:55:19;101054.56;;;14.75;100.00
56402;BME280;42299;35.160;26.100;2023-04-29T01:56:53;101066.97;;;14.75;100.00
56402;BME280;42299;35.160;26.100;2023-04-29T01:58:43;101066.06;;;14.74;100.00
56402;BME280;42299;35.160;26.100;2023-04-29T02:00:26;101071.34;;;14.71;99.85
56402;BME280;42299;35.160;26.100;2023-04-29T02:01:48;101068.72;;;14.70;99.94
56402;BME280;42299;35.160;26.100;2023-04-29T02:03:10;101071.34;;;14.68;100.00
56402;BME280;42299;35.160;26.100;2023-04-29T02:04:36;101067.81;;;14.68;100.00
56402;BME280;42299;35.160;26.100;2023-04-29T02:05:57;101063.41;;;14.70;100.00
56402;BME280;42299;35.160;26.100;2023-04-29T02:07:19;101073.13;;;14.71;100.00
56402;BME280;42299;35.160;26.100;2023-04-29T02:08:41;101082.00;;;14.73;100.00
56402;BME280;42299;35.160;26.100;2023-04-29T02:10:04;101085.53;;;14.73;100.00
56402;BME280;42299;35.160;26.100;2023-04-29T02:11:29;101084.66;;;14.73;100.00
56402;BME280;42299;35.160;26.100;2023-04-29T02:12:52;101086.41;;;14.72;100.00
56402;BME280;42299;35.160;26.100;2023-04-29T02:14:14;101091.75;;;14.72;100.00
56402;BME280;42299;35.160;26.100;2023-04-29T02:15:37;101089.97;;;14.73;100.00
56402;BME280;42299;35.160;26.100;2023-04-29T02:16:59;101089.09;;;14.72;100.00
56402;BME280;42299;35.160;26.100;2023-04-29T02:18:22;101085.53;;;14.72;100.00
56402;BME280;42299;35.160;26.100;2023-04-29T02:19:43;101087.31;;;14.71;100.00
56402;BME280;42299;35.160;26.100;2023-04-29T02:21:06;101080.25;;;14.75;100.00
56402;BME280;42299;35.160;26.100;2023-04-29T02:22:29;101093.53;;;14.75;100.00
56402;BME280;42299;35.160;26.100;2023-04-29T02:23:51;101086.44;;;14.75;100.00
56402;BME280;42299;35.160;26.100;2023-04-29T02:25:17;101093.53;;;14.75;100.00
56402;BME280;42299;35.160;26.100;2023-04-29T02:26:40;101089.09;;;14.74;100.00
56402;BME280;42299;35.160;26.100;2023-04-29T02:28:02;101097.03;;;14.71;100.00
56402;BME280;42299;35.160;26.100;2023-04-29T02:29:24;101089.09;;;14.69;100.00
56402;BME280;42299;35.160;26.100;2023-04-29T02:30:49;101089.06;;;14.68;100.00
56402;BME280;42299;35.160;26.100;2023-04-29T02:32:11;101076.66;;;14.67;100.00
56402;BME280;42299;35.160;26.100;2023-04-29T02:33:35;101083.75;;;14.68;100.00
56402;BME280;42299;35.160;26.100;2023-04-29T02:34:56;101083.75;;;14.68;100.00
56402;BME280;42299;35.160;26.100;2023-04-29T02:36:19;101079.34;;;14.70;100.00
56402;BME280;42299;35.160;26.100;2023-04-29T02:37:41;101084.66;;;14.70;100.00
56402;BME280;42299;35.160;26.100;2023-04-29T02:39:04;101086.41;;;14.71;100.00
56402;BME280;42299;35.160;26.100;2023-04-29T02:40:25;101082.88;;;14.72;100.00
56402;BME280;42299;35.160;26.100;2023-04-29T02:41:53;101096.19;;;14.75;100.00
56402;BME280;42299;35.160;26.100;2023-04-29T02:43:14;101088.19;;;14.73;100.00
56402;BME280;42299;35.160;26.100;2023-04-29T02:44:39;101093.53;;;14.73;100.00
56402;BME280;42299;35.160;26.100;2023-04-29T02:46:01;101104.16;;;14.73;100.00
56402;BME280;42299;35.160;26.100;2023-04-29T02:47:24;101092.63;;;14.71;100.00
56402;BME280;42299;35.160;26.100;2023-04-29T02:48:46;101098.81;;;14.70;100.00
56402;BME280;42299;35.160;26.100;2023-04-29T02:50:09;101096.16;;;14.69;100.00
56402;BME280;42299;35.160;26.100;2023-04-29T02:51:31;101091.72;;;14.68;100.00
56402;BME280;42299;35.160;26.100;2023-04-29T02:52:53;101089.06;;;14.66;100.00
56402;BME280;42299;35.160;26.100;2023-04-29T02:54:15;101086.38;;;14.65;100.00
56402;BME280;42299;35.160;26.100;2023-04-29T02:55:37;101088.16;;;14.64;100.00
56402;BME280;42299;35.160;26.100;2023-04-29T02:57:04;101084.63;;;14.65;100.00
56402;BME280;42299;35.160;26.100;2023-04-29T02:58:27;101083.72;;;14.65;100.00
56402;BME280;42299;35.160;26.100;2023-04-29T02:59:49;101090.81;;;14.66;100.00
56402;BME280;42299;35.160;26.100;2023-04-29T03:01:11;101091.72;;;14.66;100.00
56402;BME280;42299;35.160;26.100;2023-04-29T03:02:33;101083.75;;;14.66;100.00
56402;BME280;42299;35.160;26.100;2023-04-29T03:03:56;101094.34;;;14.65;100.00
56402;BME280;42299;35.160;26.100;2023-04-29T03:05:18;101083.72;;;14.65;100.00
56402;BME280;42299;35.160;26.100;2023-04-29T03:06:41;101090.81;;;14.66;100.00
56402;BME280;42299;35.160;26.100;2023-04-29T03:08:05;101099.69;;;14.66;100.00
56402;BME280;42299;35.160;26.100;2023-04-29T03:09:28;101095.25;;;14.65;100.00
56402;BME280;42299;35.160;26.100;2023-04-29T03:10:49;101095.25;;;14.65;100.00
56402;BME280;42299;35.160;26.100;2023-04-29T03:12:14;101086.38;;;14.65;100.00
56402;BME280;42299;35.160;26.100;2023-04-29T03:13:37;101087.28;;;14.65;100.00
56402;BME280;42299;35.160;26.100;2023-04-29T03:15:01;101096.16;;;14.69;100.00
56402;BME280;42299;35.160;26.100;2023-04-29T03:16:24;101081.97;;;14.71;100.00
56402;BME280;42299;35.160;26.100;2023-04-29T03:17:49;101101.50;;;14.75;100.00
56402;BME280;42299;35.160;26.100;2023-04-29T03:19:12;101095.31;;;14.76;100.00
56402;BME280;42299;35.160;26.100;2023-04-29T03:20:33;101095.31;;;14.76;100.00
56402;BME280;42299;35.160;26.100;2023-04-29T03:21:57;101104.19;;;14.77;100.00
56402;BME280;42299;35.160;26.100;2023-04-29T03:23:19;101097.06;;;14.75;100.00
56402;BME280;42299;35.160;26.100;2023-04-29T03:24:42;101101.50;;;14.75;100.00
56402;BME280;42299;35.160;26.100;2023-04-29T03:26:04;101097.97;;;14.76;100.00
56402;BME280;42299;35.160;26.100;2023-04-29T03:27:28;101096.19;;;14.75;100.00
56402;BME280;42299;35.160;26.100;2023-04-29T03:28:51;101104.16;;;14.75;100.00
56402;BME280;42299;35.160;26.100;2023-04-29T03:30:12;101104.16;;;14.75;100.00
56402;BME280;42299;35.160;26.100;2023-04-29T03:31:41;101111.25;;;14.74;100.00
56402;BME280;42299;35.160;26.100;2023-04-29T03:33:04;101106.81;;;14.75;100.00
56402;BME280;42299;35.160;26.100;2023-04-29T03:34:27;101105.94;;;14.76;100.00
56402;BME280;42299;35.160;26.100;2023-04-29T03:36:15;101105.94;;;14.76;100.00
56402;BME280;42299;35.160;26.100;2023-04-29T03:37:54;101110.34;;;14.77;100.00
56402;BME280;42299;35.160;26.100;2023-04-29T03:39:21;101105.94;;;14.76;100.00
56402;BME280;42299;35.160;26.100;2023-04-29T03:40:43;101114.78;;;14.78;100.00
56402;BME280;42299;35.160;26.100;2023-04-29T03:42:05;101112.16;;;14.81;100.00
56402;BME280;42299;35.160;26.100;2023-04-29T03:43:29;101118.38;;;14.82;100.00
56402;BME280;42299;35.160;26.100;2023-04-29T03:44:52;101113.06;;;14.83;100.00
56402;BME280;42299;35.160;26.100;2023-04-29T03:46:14;101110.38;;;14.85;100.00
56402;BME280;42299;35.160;26.100;2023-04-29T03:47:37;101107.72;;;14.85;100.00
56402;BME280;42299;35.160;26.100;2023-04-29T03:48:59;101093.56;;;14.87;100.00
56402;BME280;42299;35.160;26.100;2023-04-29T03:50:22;101112.16;;;14.90;100.00
56402;BME280;42299;35.160;26.100;2023-04-29T03:51:43;101109.53;;;14.92;100.00
56402;BME280;42299;35.160;26.100;2023-04-29T03:53:09;101114.00;;;14.96;100.00
56402;BME280;42299;35.160;26.100;2023-04-29T03:54:33;101106.91;;;14.99;100.00
56402;BME280;42299;35.160;26.100;2023-04-29T03:55:55;101107.81;;;15.01;100.00
56402;BME280;42299;35.160;26.100;2023-04-29T03:57:16;101108.69;;;15.05;100.00
56402;BME280;42299;35.160;26.100;2023-04-29T03:58:40;101103.38;;;15.08;100.00
56402;BME280;42299;35.160;26.100;2023-04-29T04:00:03;101102.50;;;15.12;100.00
56402;BME280;42299;35.160;26.100;2023-04-29T04:01:34;101106.06;;;15.15;100.00
56402;BME280;42299;35.160;26.100;2023-04-29T04:02:56;101094.53;;;15.20;100.00
56402;BME280;42299;35.160;26.100;2023-04-29T04:04:19;101097.22;;;15.27;100.00
56402;BME280;42299;35.160;26.100;2023-04-29T04:05:42;101098.13;;;15.34;100.00
56402;BME280;42299;35.160;26.100;2023-04-29T04:07:08;101104.34;;;15.40;100.00
56402;BME280;42299;35.160;26.100;2023-04-29T04:08:51;101098.13;;;15.44;100.00
56402;BME280;42299;35.160;26.100;2023-04-29T04:10:19;101092.81;;;15.46;100.00
56402;BME280;42299;35.160;26.100;2023-04-29T04:11:40;101101.69;;;15.51;100.00
56402;BME280;42299;35.160;26.100;2023-04-29T04:13:03;101103.47;;;15.57;100.00
56402;BME280;42299;35.160;26.100;2023-04-29T04:14:25;101089.31;;;15.59;100.00
56402;BME280;42299;35.160;26.100;2023-04-29T04:15:49;101095.50;;;15.60;100.00
56402;BME280;42299;35.160;26.100;2023-04-29T04:17:11;101109.72;;;15.65;100.00
56402;BME280;42299;35.160;26.100;2023-04-29T04:18:33;101105.28;;;15.71;100.00
56402;BME280;42299;35.160;26.100;2023-04-29T04:19:56;101104.38;;;15.77;100.00
56402;BME280;42299;35.160;26.100;2023-04-29T04:21:18;101111.50;;;15.81;100.00
56402;BME280;42299;35.160;26.100;2023-04-29T04:22:49;101111.47;;;15.82;100.00
56402;BME280;42299;35.160;26.100;2023-04-29T04:24:15;101108.81;;;15.82;100.00
56402;BME280;42299;35.160;26.100;2023-04-29T04:25:38;101112.38;;;15.84;100.00
56402;BME280;42299;35.160;26.100;2023-04-29T04:27:18;101101.72;;;15.86;100.00
56402;BME280;42299;35.160;26.100;2023-04-29T04:28:42;101101.72;;;15.90;100.00
56402;BME280;42299;35.160;26.100;2023-04-29T04:30:10;101107.94;;;15.99;100.00
56402;BME280;42299;35.160;26.100;2023-04-29T04:31:33;101099.03;;;16.03;100.00
56402;BME280;42299;35.160;26.100;2023-04-29T04:32:56;101110.56;;;16.02;97.19
56402;BME280;42299;35.160;26.100;2023-04-29T04:34:18;101107.91;;;16.03;96.20
56402;BME280;42299;35.160;26.100;2023-04-29T04:35:44;101111.44;;;16.08;93.65
56402;BME280;42299;35.160;26.100;2023-04-29T04:37:06;101099.00;;;16.15;92.72
56402;BME280;42299;35.160;26.100;2023-04-29T04:38:29;101116.75;;;16.23;92.60
56402;BME280;42299;35.160;26.100;2023-04-29T04:39:54;101112.31;;;16.33;93.97
56402;BME280;42299;35.160;26.100;2023-04-29T04:41:16;101114.06;;;16.45;94.87
56402;BME280;42299;35.160;26.100;2023-04-29T04:42:41;101108.69;;;16.48;94.87
56402;BME280;42299;35.160;26.100;2023-04-29T04:44:07;101111.38;;;16.49;95.65
56402;BME280;42299;35.160;26.100;2023-04-29T04:45:48;101113.13;;;16.55;96.83
56402;BME280;42299;35.160;26.100;2023-04-29T04:47:11;101114.03;;;16.63;96.83
56402;BME280;42299;35.160;26.100;2023-04-29T04:48:43;101126.44;;;16.71;95.95
56402;BME280;42299;35.160;26.100;2023-04-29T04:50:08;101121.97;;;16.78;95.30
56402;BME280;42299;35.160;26.100;2023-04-29T04:51:31;101129.03;;;16.90;95.05
56402;BME280;42299;35.160;26.100;2023-04-29T04:52:54;101123.66;;;16.94;93.90
56402;BME280;42299;35.160;26.100;2023-04-29T04:54:44;101129.03;;;16.93;90.31
56402;BME280;42299;35.160;26.100;2023-04-29T04:56:11;101114.78;;;16.95;88.28
56402;BME280;42299;35.160;26.100;2023-04-29T04:57:34;101116.53;;;17.02;87.49
56402;BME280;42299;35.160;26.100;2023-04-29T04:58:56;101098.72;;;17.03;87.09
56402;BME280;42299;35.160;26.100;2023-04-29T05:00:19;101117.44;;;17.00;87.41
56402;BME280;42299;35.160;26.100;2023-04-29T05:01:43;101109.41;;;17.03;87.08
56402;BME280;42299;35.160;26.100;2023-04-29T05:03:05;101120.97;;;17.00;86.17
56402;BME280;42299;35.160;26.100;2023-04-29T05:04:26;101129.00;;;16.97;85.80
56402;BME280;42299;35.160;26.100;2023-04-29T05:05:52;101115.63;;;17.00;86.44
56402;BME280;42299;35.160;26.100;2023-04-29T05:07:13;101119.22;;;16.98;86.10
56402;BME280;42299;35.160;26.100;2023-04-29T05:08:56;101124.50;;;17.07;87.32
56402;BME280;42299;35.160;26.100;2023-04-29T05:10:19;101114.63;;;17.21;86.54
56402;BME280;42299;35.160;26.100;2023-04-29T05:11:47;101119.03;;;17.31;84.90
56402;BME280;42299;35.160;26.100;2023-04-29T05:13:11;101123.41;;;17.40;84.83
56402;BME280;42299;35.160;26.100;2023-04-29T05:14:33;101111.78;;;17.51;83.67
56402;BME280;42299;35.160;26.100;2023-04-29T05:15:56;101116.16;;;17.63;81.89
56402;BME280;42299;35.160;26.100;2023-04-29T05:17:22;101115.19;;;17.75;80.73
56402;BME280;42299;35.160;26.100;2023-04-29T05:18:44;101114.19;;;17.86;80.53
56402;BME280;42299;35.160;26.100;2023-04-29T05:20:07;101106.94;;;18.04;79.29
56402;BME280;42299;35.160;26.100;2023-04-29T05:21:30;101114.81;;;18.16;75.60
56402;BME280;42299;35.160;26.100;2023-04-29T05:22:52;101110.19;;;18.31;74.25
56402;BME280;42299;35.160;26.100;2023-04-29T05:24:15;101105.56;;;18.49;73.77
56402;BME280;42299;35.160;26.100;2023-04-29T05:25:38;101108.94;;;18.67;74.36
56402;BME280;42299;35.160;26.100;2023-04-29T05:27:01;101113.16;;;18.85;73.72
56402;BME280;42299;35.160;26.100;2023-04-29T05:28:24;101111.19;;;19.01;73.55
56402;BME280;42299;35.160;26.100;2023-04-29T05:29:46;101113.59;;;19.19;72.97
56402;BME280;42299;35.160;26.100;2023-04-29T05:31:07;101117.78;;;19.37;71.83
56402;BME280;42299;35.160;26.100;2023-04-29T05:32:32;101119.47;;;19.45;69.92
56402;BME280;42299;35.160;26.100;2023-04-29T05:33:55;101111.34;;;19.53;69.18
56402;BME280;42299;35.160;26.100;2023-04-29T05:35:18;101123.75;;;19.60;65.43
56402;BME280;42299;35.160;26.100;2023-04-29T05:36:40;101123.66;;;19.65;62.79
56402;BME280;42299;35.160;26.100;2023-04-29T05:38:02;101120.06;;;19.67;63.72
56402;BME280;42299;35.160;26.100;2023-04-29T05:39:35;101128.03;;;19.70;66.64
56402;BME280;42299;35.160;26.100;2023-04-29T05:41:04;101128.75;;;19.81;67.07
56402;BME280;42299;35.160;26.100;2023-04-29T05:42:41;101142.09;;;19.84;66.31
56402;BME280;42299;35.160;26.100;2023-04-29T05:44:04;101149.13;;;19.92;66.97
56402;BME280;42299;35.160;26.100;2023-04-29T05:45:27;101128.41;;;20.01;65.51
56402;BME280;42299;35.160;26.100;2023-04-29T05:46:48;101143.41;;;20.13;63.91
56402;BME280;42299;35.160;26.100;2023-04-29T05:48:14;101144.97;;;20.26;62.66
56402;BME280;42299;35.160;26.100;2023-04-29T05:49:38;101146.63;;;20.32;62.95
56402;BME280;42299;35.160;26.100;2023-04-29T05:51:00;101137.53;;;20.42;61.40
56402;BME280;42299;35.160;26.100;2023-04-29T05:52:23;101135.81;;;20.38;60.92
56402;BME280;42299;35.160;26.100;2023-04-29T05:53:45;101124.38;;;20.28;60.80
56402;BME280;42299;35.160;26.100;2023-04-29T05:55:07;101138.63;;;20.28;60.79
56402;BME280;42299;35.160;26.100;2023-04-29T05:56:30;101152.84;;;20.35;60.38
56402;BME280;42299;35.160;26.100;2023-04-29T05:57:53;101151.00;;;20.40;60.17
56402;BME280;42299;35.160;26.100;2023-04-29T05:59:16;101140.41;;;20.33;61.93
56402;BME280;42299;35.160;26.100;2023-04-29T06:00:44;101137.72;;;20.33;62.49
56402;BME280;42299;35.160;26.100;2023-04-29T06:02:15;101145.53;;;20.45;62.50
56402;BME280;42299;35.160;26.100;2023-04-29T06:03:39;101141.59;;;20.62;62.79
56402;BME280;42299;35.160;26.100;2023-04-29T06:05:22;101127.13;;;20.71;61.48
56402;BME280;42299;35.160;26.100;2023-04-29T06:07:23;101148.69;;;20.66;62.59
56402;BME280;42299;35.160;26.100;2023-04-29T06:08:54;101138.66;;;20.76;61.35
56402;BME280;42299;35.160;26.100;2023-04-29T06:10:20;101149.28;;;20.81;59.05
56402;BME280;42299;35.160;26.100;2023-04-29T06:11:43;101144.63;;;20.89;58.66
56402;BME280;42299;35.160;26.100;2023-04-29T06:13:05;101150.88;;;20.91;58.78
56402;BME280;42299;35.160;26.100;2023-04-29T06:14:27;101149.09;;;20.90;59.51
56402;BME280;42299;35.160;26.100;2023-04-29T06:15:50;101143.75;;;20.88;60.25
56402;BME280;42299;35.160;26.100;2023-04-29T06:17:12;101151.25;;;20.73;61.75
56402;BME280;42299;35.160;26.100;2023-04-29T06:18:35;101160.13;;;20.76;63.24
56402;BME280;42299;35.160;26.100;2023-04-29T06:19:59;101158.03;;;20.90;63.30
56402;BME280;42299;35.160;26.100;2023-04-29T06:21:22;101155.97;;;21.04;62.78
56402;BME280;42299;35.160;26.100;2023-04-29T06:22:45;101166.47;;;21.17;61.86
56402;BME280;42299;35.160;26.100;2023-04-29T06:24:07;101159.00;;;21.31;58.92
56402;BME280;42299;35.160;26.100;2023-04-29T06:25:29;101164.06;;;21.44;56.85
56402;BME280;42299;35.160;26.100;2023-04-29T06:26:55;101174.53;;;21.57;55.18
56402;BME280;42299;35.160;26.100;2023-04-29T06:28:20;101153.06;;;21.55;54.12
56402;BME280;42299;35.160;26.100;2023-04-29T06:29:44;101160.38;;;21.48;53.22
56402;BME280;42299;35.160;26.100;2023-04-29T06:31:06;101168.44;;;21.48;54.38
56402;BME280;42299;35.160;26.100;2023-04-29T06:32:28;101160.22;;;21.56;53.87
56402;BME280;42299;35.160;26.100;2023-04-29T06:33:50;101161.94;;;21.59;53.25
56402;BME280;42299;35.160;26.100;2023-04-29T06:35:18;101158.56;;;21.51;53.07
56402;BME280;42299;35.160;26.100;2023-04-29T06:36:43;101153.34;;;21.43;54.30
56402;BME280;42299;35.160;26.100;2023-04-29T06:38:22;101159.56;;;21.45;54.25
56402;BME280;42299;35.160;26.100;2023-04-29T06:40:08;101148.50;;;21.59;53.69
56402;BME280;42299;35.160;26.100;2023-04-29T06:41:58;101150.13;;;21.66;54.71
56402;BME280;42299;35.160;26.100;2023-04-29T06:43:54;101141.97;;;21.70;53.62
56402;BME280;42299;35.160;26.100;2023-04-29T06:45:44;101152.00;;;21.62;52.80
56402;BME280;42299;35.160;26.100;2023-04-29T06:47:14;101149.31;;;21.62;52.78
56402;BME280;42299;35.160;26.100;2023-04-29T06:48:41;101154.56;;;21.67;52.61
56402;BME280;42299;35.160;26.100;2023-04-29T06:50:04;101158.97;;;21.71;52.68
56402;BME280;42299;35.160;26.100;2023-04-29T06:51:29;101159.72;;;21.77;50.91
56402;BME280;42299;35.160;26.100;2023-04-29T06:52:53;101168.75;;;21.73;51.41
56402;BME280;42299;35.160;26.100;2023-04-29T06:54:14;101172.25;;;21.77;52.17
56402;BME280;42299;35.160;26.100;2023-04-29T06:55:36;101172.13;;;21.83;52.41
56402;BME280;42299;35.160;26.100;2023-04-29T06:56:58;101182.66;;;21.92;51.57
56402;BME280;42299;35.160;26.100;2023-04-29T06:58:22;101186.94;;;22.01;49.99
56402;BME280;42299;35.160;26.100;2023-04-29T06:59:43;101191.34;;;22.05;49.71
56402;BME280;42299;35.160;26.100;2023-04-29T07:01:05;101187.59;;;22.10;49.16
56402;BME280;42299;35.160;26.100;2023-04-29T07:02:28;101207.38;;;22.08;49.02
56402;BME280;42299;35.160;26.100;2023-04-29T07:03:50;101200.16;;;22.10;48.39
56402;BME280;42299;35.160;26.100;2023-04-29T07:05:13;101213.38;;;22.19;47.73
56402;BME280;42299;35.160;26.100;2023-04-29T07:06:38;101198.03;;;22.24;46.12
56402;BME280;42299;35.160;26.100;2023-04-29T07:08:01;101207.31;;;22.11;46.25
56402;BME280;42299;35.160;26.100;2023-04-29T07:09:23;101206.41;;;22.12;46.92
56402;BME280;42299;35.160;26.100;2023-04-29T07:10:53;101225.88;;;22.21;47.19
56402;BME280;42299;35.160;26.100;2023-04-29T07:12:17;101212.25;;;22.27;47.15
56402;BME280;42299;35.160;26.100;2023-04-29T07:13:39;101231.91;;;22.31;46.13
56402;BME280;42299;35.160;26.100;2023-04-29T07:15:02;101223.72;;;22.36;45.44
56402;BME280;42299;35.160;26.100;2023-04-29T07:16:24;101217.78;;;22.21;45.21